METAR Data
IDs: Format: Raw Decoded Include TAF

Data at: 1854 UTC 25 Mar 2019

KUTS 251820Z AUTO 00000KT 10SM SCT024 BKN033 BKN043 23/19 A3012 RMK AO2 RAB02E17 P0000 T02280194
KUTS 251753Z AUTO VRB05KT 10SM SCT020 BKN027 BKN040 25/19 A3012 RMK AO2 SLP194 60001 T02500194 10250 20200 50000
KUTS 251653Z AUTO 29008KT 10SM BKN016 BKN023 OVC029 23/19 A3013 RMK AO2 SLP199 T02330189
KUTS 251609Z AUTO 24008KT 10SM BKN015 BKN020 OVC035 23/19 A3013 RMK AO2 T02280189
KUTS 251553Z AUTO 24007KT 10SM BKN014 OVC020 23/19 A3013 RMK AO2 SLP198 T02280189
KUTS 251509Z AUTO 24008KT 9SM BKN011 22/19 A3012 RMK AO2 CIG 009V014 T02220194
KUTS 251501Z AUTO 24006KT 9SM BKN009 BKN040 BKN047 22/19 A3012 RMK AO2 CIG 007V014 T02170189
KUTS 251453Z AUTO 25009KT 8SM SCT009 BKN034 BKN047 22/19 A3012 RMK AO2 SLP194 60001 T02220189 53015
KUTS 251429Z AUTO 22006KT 10SM FEW007 BKN034 22/19 A3011 RMK AO2 T02170194
KUTS 251353Z AUTO 21005KT 7SM BKN040 BKN050 OVC070 21/19 A3010 RMK AO2 RAB1259E15 SLP188 P0001 T02060194
KUTS 251313Z AUTO 19005KT 3SM -RA BR FEW015 SCT026 OVC040 20/19 A3009 RMK AO2 RAB1259 P0001 T02000189
KUTS 251307Z AUTO 19004KT 2SM -RA BR FEW013 BKN024 OVC040 20/19 A3009 RMK AO2 RAB1259 P0001 T02000189
KUTS 251253Z AUTO 00000KT 4SM BR SCT014 BKN021 OVC025 20/19 A3009 RMK AO2 RAE1157B34E50 SLP185 P0000 T02000189
KUTS 251205Z AUTO 00000KT 7SM FEW009 BKN020 OVC026 20/19 A3007 RMK AO2 RAE1157 P0000 T02000189
KUTS 251153Z AUTO 00000KT 5SM -RA BR BKN013 OVC021 20/18 A3007 RMK AO2 RAB02 SLP179 P0000 60000 T02000183 10211 20200 53016
KUTS 251053Z AUTO VRB04KT 10SM OVC014 21/18 A3006 RMK AO2 SLP173 T02060178
KUTS 250953Z AUTO 20007KT 10SM OVC013 21/18 A3003 RMK AO2 SLP165 T02110178
KUTS 250853Z AUTO 21007G16KT 10SM OVC013 21/18 A3002 RMK AO2 SLP162 T02110178 55011
KUTS 250753Z AUTO 20010KT 10SM OVC012 21/18 A3002 RMK AO2 SLP159 T02110178
KUTS 250653Z AUTO 19010KT 10SM OVC011 21/18 A3005 RMK AO2 SLP170 T02110183
KUTS 250618Z AUTO 19010G19KT 10SM OVC014 21/18 A3005 RMK AO2 T02110178
KUTS 250553Z AUTO 19011G17KT 10SM OVC015 21/18 A3006 RMK AO2 SLP174 T02110183 10261 20211 402720167 50002
KUTS 250453Z AUTO 18007KT 10SM OVC020 22/18 A3006 RMK AO2 SLP175 T02170183
KUTS 250415Z AUTO 18006KT 10SM SCT021 BKN029 OVC034 22/18 A3006 RMK AO2 T02170183
KUTS 250353Z AUTO 18006KT 10SM FEW020 SCT029 BKN035 22/18 A3005 RMK AO2 SLP172 T02170183
KUTS 250351Z AUTO 18005KT 10SM FEW018 SCT023 BKN035 22/18 A3005 RMK AO2
KUTS 250322Z AUTO 17007KT 10SM BKN019 BKN030 BKN039 22/18 A3005 RMK AO2 T02220183
KUTS 250253Z AUTO 16006KT 10SM SCT022 BKN037 OVC043 22/18 A3004 RMK AO2 SLP169 T02220183 53014
KUTS 250244Z AUTO 16005KT 10SM BKN022 OVC037 22/18 A3004 RMK AO2 T02220183
KUTS 250236Z AUTO 15003KT 10SM SCT022 OVC038 22/18 A3004 RMK AO2 T02220183
KUTS 250227Z AUTO 15004KT 10SM SCT022 BKN027 BKN036 22/18 A3004 RMK AO2 T02220183
KUTS 250153Z AUTO 14003KT 10SM SCT030 BKN040 23/18 A3002 RMK AO2 SLP162 T02280183
KUTS 250053Z AUTO VRB05KT 10SM SCT040 BKN047 24/18 A3000 RMK AO2 SLP157 T02390178
KUTS 242353Z AUTO VRB05KT 10SM CLR 26/17 A3000 RMK AO2 SLP155 T02610172 10272 20239 56012
KUTS 242253Z AUTO 17008KT 10SM FEW047 27/16 A3001 RMK AO2 SLP157 T02720161
KUTS 242153Z AUTO 17009G14KT 10SM FEW041 FEW060 27/17 A3002 RMK AO2 SLP160 T02720167
KUTS 242053Z AUTO 20009G15KT 10SM FEW042 BKN055 27/17 A3003 RMK AO2 SLP166 T02720167 56020
KUTS 241953Z AUTO 18007G16KT 10SM SCT034 SCT041 BKN050 27/17 A3005 RMK AO2 SLP170 T02670172
KUTS 241853Z AUTO 18010G15KT 10SM SCT034 BKN050 26/17 A3007 RMK AO2 SLP180 T02560167
KUTS 241753Z AUTO 17006KT 10SM SCT028 BKN035 OVC047 24/17 A3009 RMK AO2 SLP187 T02390172 10250 20167 58010
KUTS 241742Z AUTO 20008KT 10SM BKN028 OVC045 24/17 A3010 RMK AO2 T02440172
KUTS 241653Z AUTO 18010KT 10SM SCT022 BKN030 BKN040 23/17 A3011 RMK AO2 SLP193 T02330172
KUTS 241636Z AUTO 18007KT 10SM SCT023 BKN030 23/17 A3012 RMK AO2 T02330172
KUTS 241553Z AUTO 19008KT 10SM BKN016 22/17 A3013 RMK AO2 SLP199 T02220172
KUTS 241511Z AUTO 19010KT 10SM OVC011 21/17 A3013 RMK AO2 CIG 008V013 T02060172
KUTS 241453Z AUTO 19008KT 10SM OVC008 20/17 A3012 RMK AO2 CIG 007V012 SLP197 T02000172 53013
KUTS 241433Z AUTO 18007KT 8SM OVC008 19/17 A3012 RMK AO2 CIG 005V011 T01940167
KUTS 241417Z AUTO 19007KT 6SM BR OVC005 18/17 A3012 RMK AO2 CIG 004V009 T01830167
KUTS 241353Z AUTO 19006KT 5SM BR OVC004 18/17 A3011 RMK AO2 SLP192 T01830167
KUTS 241314Z AUTO 17008KT 5SM BR OVC004 17/16 A3009 RMK AO2 T01720161
KUTS 241253Z AUTO 17007KT 6SM BR BKN006 BKN027 17/16 A3008 RMK AO2 SLP184 T01720156
KUTS 241233Z AUTO VRB05KT 6SM BR SCT007 17/15 A3009 RMK AO2 T01670150
KUTS 241153Z AUTO 17008KT 9SM CLR 17/15 A3009 RMK AO2 SLP184 T01670150 10178 20167 51005
KUTS 241053Z AUTO VRB05KT 10SM BKN060 17/15 A3008 RMK AO2 SLP181 T01670150
KUTS 240953Z AUTO 17006KT 10SM CLR 17/14 A3008 RMK AO2 SLP183 T01720144
KUTS 240853Z AUTO 16009KT 10SM FEW070 17/14 A3007 RMK AO2 SLP179 T01720144 58004
KUTS 240753Z AUTO 17005KT 10SM OVC075 17/14 A3009 RMK AO2 SLP187 T01720144